Time;durP1;ratioP1;P1;durP2;ratioP2;P2;SDS_P1;SDS_P2;PMS_P1;PMS_P2;Temp;Humidity;BMP_temperature;BMP_pressure;BME280_temperature;BME280_humidity;BME280_pressure;Samples;Min_cycle;Max_cycle;Signal;HPM_P1;HPM_P2
2022/08/15 00:00:44;;;;;;;6.53;3.40;;;21.50;70.70;;;;;;4878063;29;20096;-88
2022/08/15 00:03:21;;;;;;;8.73;2.72;;;21.50;70.70;;;;;;4867066;29;20022;-88
2022/08/15 00:05:47;;;;;;;7.75;3.05;;;21.50;70.80;;;;;;4859033;29;20088;-85
2022/08/15 00:08:12;;;;;;;7.60;3.17;;;21.40;71.20;;;;;;4867657;29;20067;-88
2022/08/15 00:10:38;;;;;;;7.32;2.53;;;21.40;71.00;;;;;;4872332;29;20018;-88
2022/08/15 00:13:14;;;;;;;6.47;2.90;;;21.30;71.50;;;;;;4863906;29;20036;-88
2022/08/15 00:15:40;;;;;;;6.55;2.97;;;21.30;71.50;;;;;;4872758;29;20030;-88
2022/08/15 00:18:06;;;;;;;6.57;2.88;;;21.20;71.90;;;;;;4874792;29;20037;-87
2022/08/15 00:20:37;;;;;;;8.25;2.83;;;21.20;71.80;;;;;;4848974;29;20102;-87
2022/08/15 00:23:03;;;;;;;5.28;2.78;;;21.20;71.90;;;;;;4868432;29;20045;-87
2022/08/15 00:25:29;;;;;;;5.28;2.70;;;21.20;72.00;;;;;;4876731;29;20040;-88
2022/08/15 00:27:55;;;;;;;7.00;2.85;;;21.30;71.90;;;;;;4853118;29;20017;-87
2022/08/15 00:30:20;;;;;;;6.45;2.78;;;21.20;72.20;;;;;;4853787;29;20034;-89
2022/08/15 00:32:53;;;;;;;4.20;2.78;;;21.20;72.20;;;;;;4863574;29;20033;-88
2022/08/15 00:35:39;;;;;;;7.47;2.72;;;21.10;72.20;;;;;;4873154;29;20139;-88
2022/08/15 00:38:16;;;;;;;4.28;2.80;;;21.10;72.30;;;;;;4879519;29;20506;-88
2022/08/15 00:43:34;;;;;;;6.35;2.90;;;21.20;72.20;;;;;;4871822;29;20043;-89
2022/08/15 00:46:02;;;;;;;6.25;2.80;;;21.20;71.90;;;;;;4865078;29;20394;-88
2022/08/15 00:48:43;;;;;;;7.97;2.97;;;21.20;72.20;;;;;;4850162;29;20025;-86
2022/08/15 00:51:29;;;;;;;8.32;3.20;;;21.20;72.10;;;;;;4878382;29;20447;-89
2022/08/15 00:54:19;;;;;;;6.95;2.90;;;21.10;72.50;;;;;;4869940;29;20105;-85
2022/08/15 00:57:00;;;;;;;5.80;2.70;;;21.00;72.70;;;;;;4838138;29;20052;-88
2022/08/15 00:59:31;;;;;;;6.13;3.13;;;20.90;73.10;;;;;;4862193;29;20028;-88
2022/08/15 01:01:59;;;;;;;5.55;2.72;;;20.80;73.70;;;;;;4866533;29;20033;-86
2022/08/15 01:04:25;;;;;;;9.45;3.03;;;20.70;73.70;;;;;;4863979;29;20093;-89
2022/08/15 01:06:50;;;;;;;6.07;3.03;;;20.60;74.10;;;;;;4854905;29;20477;-87
2022/08/15 01:09:19;;;;;;;7.22;3.20;;;20.60;74.20;;;;;;4872239;29;20042;-89
2022/08/15 01:11:47;;;;;;;4.90;2.70;;;20.50;74.50;;;;;;4867127;29;20037;-88
2022/08/15 01:14:13;;;;;;;5.57;2.88;;;20.50;74.80;;;;;;4854998;29;20160;-86
2022/08/15 01:16:39;;;;;;;5.30;2.70;;;20.40;75.20;;;;;;4861167;29;20084;-88
2022/08/15 01:19:13;;;;;;;5.35;2.63;;;20.50;75.30;;;;;;4850661;29;20048;-87
2022/08/15 01:22:03;;;;;;;8.07;2.90;;;20.40;75.50;;;;;;4890183;29;20388;-88
2022/08/15 01:24:41;;;;;;;5.55;2.97;;;20.40;75.60;;;;;;4868096;29;20446;-86
2022/08/15 01:27:09;;;;;;;7.75;3.10;;;20.30;75.90;;;;;;4856776;29;20108;-89
2022/08/15 01:29:35;;;;;;;9.27;3.08;;;20.30;76.00;;;;;;4889134;29;20024;-88
2022/08/15 01:32:00;;;;;;;8.02;2.97;;;20.20;76.10;;;;;;4857076;29;20038;-88
2022/08/15 01:34:26;;;;;;;5.45;3.15;;;20.20;76.30;;;;;;4870125;29;20037;-87
2022/08/15 01:36:51;;;;;;;8.98;3.03;;;20.20;76.50;;;;;;4867991;29;20041;-86
2022/08/15 01:39:37;;;;;;;10.18;3.22;;;20.10;76.90;;;;;;4852340;29;20053;-87
2022/08/15 01:42:11;;;;;;;4.40;2.80;;;20.10;76.80;;;;;;4873007;29;20040;-87
2022/08/15 01:44:47;;;;;;;7.72;2.90;;;20.10;76.80;;;;;;4882931;29;20040;-88
2022/08/15 01:47:27;;;;;;;7.45;3.20;;;20.10;76.70;;;;;;4867454;29;20076;-87
2022/08/15 01:50:09;;;;;;;5.05;2.88;;;20.00;77.20;;;;;;4856524;29;20524;-87
2022/08/15 01:52:41;;;;;;;5.18;2.45;;;20.00;77.30;;;;;;4859373;29;20053;-88
2022/08/15 01:55:07;;;;;;;5.22;2.70;;;20.00;77.40;;;;;;4868863;29;20121;-89
2022/08/15 01:57:33;;;;;;;8.20;3.15;;;20.00;77.70;;;;;;4863536;29;20034;-87
2022/08/15 01:59:59;;;;;;;9.95;2.92;;;19.80;77.60;;;;;;4866269;29;20041;-85
2022/08/15 02:02:26;;;;;;;8.40;3.28;;;19.80;78.00;;;;;;4861820;29;20042;-88
2022/08/15 02:04:53;;;;;;;5.80;3.13;;;19.70;78.40;;;;;;4854267;29;20148;-87
2022/08/15 02:07:22;;;;;;;4.60;2.72;;;19.70;78.40;;;;;;4865399;29;20033;-88
2022/08/15 02:09:50;;;;;;;6.82;2.90;;;19.70;78.60;;;;;;4860954;29;20026;-89
2022/08/15 02:12:18;;;;;;;4.40;2.85;;;19.60;78.90;;;;;;4855553;29;20032;-87
2022/08/15 02:14:44;;;;;;;5.32;3.10;;;19.60;79.10;;;;;;4852890;29;20037;-87
2022/08/15 02:17:10;;;;;;;6.40;2.92;;;19.50;79.30;;;;;;4857615;29;20044;-88
2022/08/15 02:19:37;;;;;;;5.25;3.22;;;19.50;79.30;;;;;;4850359;29;20111;-87
2022/08/15 02:22:06;;;;;;;5.50;2.80;;;19.50;79.50;;;;;;4869804;29;20049;-88
2022/08/15 02:24:31;;;;;;;5.43;3.17;;;19.40;80.10;;;;;;4859355;29;20029;-88
2022/08/15 02:26:57;;;;;;;6.28;3.10;;;19.40;80.10;;;;;;4857417;29;20128;-85
2022/08/15 02:29:25;;;;;;;8.50;3.03;;;19.40;80.30;;;;;;4864317;29;20093;-86
2022/08/15 02:32:03;;;;;;;5.68;3.05;;;19.30;80.30;;;;;;4850815;29;20030;-87
2022/08/15 02:34:29;;;;;;;6.22;2.78;;;19.40;80.50;;;;;;4869200;29;20100;-90
2022/08/15 02:36:55;;;;;;;9.93;3.30;;;19.30;80.50;;;;;;4864957;29;20450;-87
2022/08/15 02:39:21;;;;;;;7.53;3.55;;;19.30;80.90;;;;;;4871682;29;20466;-86
2022/08/15 02:41:50;;;;;;;6.45;2.72;;;19.30;80.90;;;;;;4862341;29;20065;-87
2022/08/15 02:44:21;;;;;;;4.55;3.15;;;19.30;81.00;;;;;;4859972;29;20032;-88
2022/08/15 02:46:49;;;;;;;6.00;2.67;;;19.20;81.10;;;;;;4871529;29;20022;-88
2022/08/15 02:49:16;;;;;;;8.85;3.40;;;19.20;80.90;;;;;;4868422;29;20029;-87
2022/08/15 02:51:42;;;;;;;5.15;3.10;;;19.10;81.30;;;;;;4854952;29;20037;-88
2022/08/15 02:54:09;;;;;;;6.22;3.33;;;19.10;81.50;;;;;;4862582;29;20137;-88
2022/08/15 02:56:36;;;;;;;4.95;3.05;;;19.20;81.70;;;;;;4857121;29;20488;-87
2022/08/15 02:59:03;;;;;;;5.90;3.20;;;19.10;81.60;;;;;;4866690;29;20037;-87
2022/08/15 03:01:30;;;;;;;5.43;3.17;;;19.10;82.20;;;;;;4874326;29;20048;-88
2022/08/15 03:03:56;;;;;;;4.70;2.97;;;19.10;81.90;;;;;;4881208;29;20032;-88
2022/08/15 03:06:32;;;;;;;7.20;3.05;;;19.00;81.90;;;;;;4867349;29;20047;-88
2022/08/15 03:09:02;;;;;;;4.60;2.92;;;19.00;82.00;;;;;;4864998;29;20037;-86
2022/08/15 03:11:29;;;;;;;6.35;3.40;;;19.10;81.90;;;;;;4868963;29;20042;-88
2022/08/15 03:13:55;;;;;;;5.53;3.35;;;19.10;82.10;;;;;;4881492;29;20104;-87
2022/08/15 03:16:21;;;;;;;8.00;3.55;;;19.10;81.70;;;;;;4851027;29;20129;-87
2022/08/15 03:18:47;;;;;;;7.70;3.33;;;19.00;82.20;;;;;;4866234;29;20473;-87
2022/08/15 03:21:17;;;;;;;4.47;3.25;;;19.00;82.20;;;;;;4869249;29;20177;-88
2022/08/15 03:23:48;;;;;;;7.17;3.23;;;19.00;82.30;;;;;;4872620;29;20026;-87
2022/08/15 03:26:20;;;;;;;7.13;3.35;;;19.00;82.50;;;;;;4854950;29;20053;-89
2022/08/15 03:28:45;;;;;;;7.78;3.22;;;19.00;82.40;;;;;;4858298;29;20499;-87
2022/08/15 03:31:12;;;;;;;4.30;3.00;;;19.00;82.40;;;;;;4849210;29;20097;-88
2022/08/15 03:33:39;;;;;;;6.47;3.35;;;19.00;82.60;;;;;;4875374;29;20065;-88
2022/08/15 03:36:05;;;;;;;9.90;3.28;;;19.00;82.50;;;;;;4872465;29;20034;-88
2022/08/15 03:38:31;;;;;;;6.10;2.90;;;19.00;82.70;;;;;;4865471;29;20060;-88
2022/08/15 03:40:57;;;;;;;4.82;3.47;;;19.00;82.80;;;;;;4862491;29;20053;-87
2022/08/15 03:43:27;;;;;;;6.60;3.28;;;18.90;82.90;;;;;;4853074;29;20029;-88
2022/08/15 03:45:55;;;;;;;9.02;3.85;;;18.90;82.90;;;;;;4864302;29;20029;-87
2022/08/15 03:48:26;;;;;;;4.97;2.88;;;18.90;82.90;;;;;;4882565;29;20119;-89
2022/08/15 03:50:53;;;;;;;6.85;3.40;;;18.90;83.00;;;;;;4849588;29;20405;-87
2022/08/15 03:53:19;;;;;;;5.70;3.20;;;19.00;83.00;;;;;;4868090;29;20036;-86
2022/08/15 03:55:45;;;;;;;4.20;3.03;;;19.00;83.00;;;;;;4864927;29;20053;-88
2022/08/15 03:58:11;;;;;;;9.73;3.60;;;19.00;83.10;;;;;;4853824;29;20089;-87
2022/08/15 04:00:43;;;;;;;7.43;4.00;;;19.00;82.90;;;;;;4849163;29;20026;-88
2022/08/15 04:03:20;;;;;;;5.88;3.40;;;19.00;82.80;;;;;;4869202;29;20105;-87
2022/08/15 04:05:51;;;;;;;9.02;3.33;;;19.10;82.70;;;;;;4876779;29;20040;-87
2022/08/15 04:08:21;;;;;;;7.82;3.42;;;19.00;82.80;;;;;;4875516;29;20033;-87
2022/08/15 04:10:49;;;;;;;6.93;3.35;;;19.00;82.60;;;;;;4856910;29;20026;-87
2022/08/15 04:13:15;;;;;;;5.55;3.03;;;19.10;82.70;;;;;;4860870;29;20028;-87
2022/08/15 04:15:41;;;;;;;7.28;3.50;;;19.00;82.60;;;;;;4873798;29;20033;-86
2022/08/15 04:18:07;;;;;;;5.97;3.20;;;19.00;82.80;;;;;;4851275;29;20064;-86
2022/08/15 04:20:32;;;;;;;7.97;3.58;;;19.00;82.80;;;;;;4868280;29;20069;-84
2022/08/15 04:22:59;;;;;;;6.15;3.15;;;19.00;83.00;;;;;;4863118;29;22182;-83
2022/08/15 04:25:33;;;;;;;8.40;3.63;;;19.00;83.00;;;;;;4867713;29;20156;-84
2022/08/15 04:28:02;;;;;;;8.00;3.42;;;19.00;83.00;;;;;;4867592;29;20510;-84
2022/08/15 04:30:32;;;;;;;4.95;3.17;;;19.00;82.90;;;;;;4861115;29;20455;-86
2022/08/15 04:33:06;;;;;;;5.55;3.60;;;19.00;82.90;;;;;;4868134;29;20033;-83
2022/08/15 04:35:32;;;;;;;7.18;3.60;;;19.00;83.10;;;;;;4868536;29;20056;-87
2022/08/15 04:37:58;;;;;;;5.50;3.47;;;19.00;83.00;;;;;;4869055;29;20386;-86
2022/08/15 04:40:23;;;;;;;8.18;3.53;;;19.00;83.00;;;;;;4874839;29;20025;-84
2022/08/15 04:42:53;;;;;;;7.32;3.80;;;19.00;82.90;;;;;;4867451;29;20093;-88
2022/08/15 04:45:20;;;;;;;6.13;3.35;;;19.00;82.90;;;;;;4861367;29;20026;-85
2022/08/15 04:47:46;;;;;;;7.60;3.35;;;19.20;82.70;;;;;;4850637;29;20112;-87
2022/08/15 04:50:12;;;;;;;7.85;3.95;;;19.20;82.80;;;;;;4875431;29;20053;-85
2022/08/15 04:52:50;;;;;;;5.97;3.78;;;19.20;82.80;;;;;;4875064;29;20064;-85
2022/08/15 04:55:16;;;;;;;7.10;3.58;;;19.20;82.60;;;;;;4859323;29;20105;-86
2022/08/15 04:57:42;;;;;;;7.85;3.83;;;19.20;82.60;;;;;;4859380;29;20509;-84
2022/08/15 05:00:11;;;;;;;8.73;4.15;;;19.30;82.50;;;;;;4874188;29;20472;-84
2022/08/15 05:02:38;;;;;;;6.53;3.75;;;19.30;82.30;;;;;;4860604;29;20038;-86
2022/08/15 05:05:05;;;;;;;7.60;3.70;;;19.40;82.20;;;;;;4852600;29;20071;-87
2022/08/15 05:07:31;;;;;;;7.35;3.80;;;19.50;81.90;;;;;;4882235;29;20036;-86
2022/08/15 05:09:58;;;;;;;8.65;4.18;;;19.50;81.70;;;;;;4868350;29;20512;-86
2022/08/15 05:12:24;;;;;;;11.68;4.28;;;19.50;81.60;;;;;;4882241;29;20041;-87
2022/08/15 05:14:50;;;;;;;6.68;4.00;;;19.60;81.20;;;;;;4885807;29;20045;-86
2022/08/15 05:17:15;;;;;;;7.57;4.13;;;19.70;81.20;;;;;;4857571;29;20030;-86
2022/08/15 05:19:42;;;;;;;8.05;4.50;;;19.80;80.90;;;;;;4874706;29;20252;-86
2022/08/15 05:22:09;;;;;;;10.85;4.15;;;19.80;80.90;;;;;;4863302;29;20137;-86
2022/08/15 05:24:35;;;;;;;8.27;4.57;;;19.90;80.50;;;;;;4866848;29;20064;-86
2022/08/15 05:27:00;;;;;;;7.35;3.95;;;20.00;80.10;;;;;;4872360;29;20390;-86
2022/08/15 05:29:26;;;;;;;5.60;3.80;;;20.10;79.60;;;;;;4870305;29;20029;-86
2022/08/15 05:31:52;;;;;;;6.78;4.43;;;20.20;79.70;;;;;;4867816;29;20043;-84
2022/08/15 05:34:19;;;;;;;9.32;4.20;;;20.30;79.40;;;;;;4860426;29;20021;-85
2022/08/15 05:36:49;;;;;;;7.55;3.97;;;20.30;79.40;;;;;;4863921;29;20482;-86
2022/08/15 05:39:28;;;;;;;6.80;4.47;;;20.40;79.10;;;;;;4856239;29;20040;-88
2022/08/15 05:42:34;;;;;;;5.53;3.97;;;20.50;78.70;;;;;;4870240;29;20093;-85
2022/08/15 05:45:15;;;;;;;9.68;4.30;;;20.60;78.50;;;;;;4830031;29;20053;-87
2022/08/15 05:47:59;;;;;;;6.30;4.15;;;20.70;78.80;;;;;;4867493;29;20508;-87
2022/08/15 05:50:31;;;;;;;6.63;4.10;;;20.70;78.60;;;;;;4868326;29;20036;-86
2022/08/15 05:53:25;;;;;;;8.73;5.07;;;20.90;77.30;;;;;;4868563;29;20117;-86
2022/08/15 05:56:22;;;;;;;5.55;4.47;;;21.00;77.00;;;;;;4862717;29;20184;-87
2022/08/15 05:59:03;;;;;;;6.68;4.40;;;21.20;76.20;;;;;;4867929;29;20116;-87
2022/08/15 06:01:37;;;;;;;7.75;4.78;;;21.30;75.70;;;;;;4880400;29;20090;-86
2022/08/15 06:04:31;;;;;;;8.30;4.55;;;21.50;75.70;;;;;;4871341;29;20032;-86
2022/08/15 06:07:02;;;;;;;14.30;4.53;;;21.60;74.90;;;;;;4863534;29;20493;-84
2022/08/15 06:09:38;;;;;;;5.43;4.45;;;21.70;74.70;;;;;;4875820;29;20044;-87
2022/08/15 06:12:09;;;;;;;8.60;4.95;;;21.90;73.70;;;;;;4880663;29;20161;-87
2022/08/15 06:14:39;;;;;;;7.65;4.60;;;22.00;73.70;;;;;;4888759;29;20016;-86
2022/08/15 06:17:28;;;;;;;12.60;5.05;;;22.10;73.90;;;;;;4886240;29;20029;-84
2022/08/15 06:19:58;;;;;;;8.90;4.57;;;22.20;72.80;;;;;;4864533;29;20021;-86
2022/08/15 06:22:38;;;;;;;7.75;4.40;;;22.30;72.80;;;;;;4876838;29;20040;-86
2022/08/15 06:25:22;;;;;;;10.27;4.60;;;22.50;72.00;;;;;;4863178;29;20128;-86
2022/08/15 06:28:06;;;;;;;8.73;4.88;;;22.50;72.10;;;;;;4855991;29;20033;-85
2022/08/15 06:30:50;;;;;;;7.47;4.80;;;22.60;71.30;;;;;;4865705;29;20065;-87
2022/08/15 06:33:16;;;;;;;8.30;4.60;;;22.80;71.80;;;;;;4882473;29;20033;-87
2022/08/15 06:35:54;;;;;;;7.10;4.97;;;22.90;70.90;;;;;;4866283;29;20021;-88
2022/08/15 06:38:37;;;;;;;7.47;4.30;;;23.10;71.30;;;;;;4852712;29;20025;-87
2022/08/15 06:41:14;;;;;;;8.00;4.53;;;23.30;70.40;;;;;;4858508;29;20044;-86
2022/08/15 06:43:41;;;;;;;7.68;4.85;;;23.60;69.30;;;;;;4874940;29;20049;-87
2022/08/15 06:46:07;;;;;;;6.40;4.55;;;23.80;68.90;;;;;;4863474;29;20048;-85
2022/08/15 06:48:37;;;;;;;10.73;5.05;;;24.00;68.30;;;;;;4865275;29;20108;-86
2022/08/15 06:51:06;;;;;;;6.03;4.68;;;24.20;68.20;;;;;;4863625;29;20173;-85
2022/08/15 06:53:52;;;;;;;7.50;4.28;;;24.10;67.30;;;;;;4854243;29;20036;-88
2022/08/15 06:56:29;;;;;;;8.00;4.50;;;24.30;66.30;;;;;;4854187;29;20094;-86
2022/08/15 06:59:23;;;;;;;10.23;4.25;;;24.70;67.60;;;;;;4850637;29;20556;-87
2022/08/15 07:02:13;;;;;;;7.75;4.78;;;24.80;66.60;;;;;;4866602;29;20033;-87
2022/08/15 07:05:09;;;;;;;6.28;4.28;;;25.00;64.90;;;;;;4873220;29;20478;-86
2022/08/15 07:08:01;;;;;;;8.50;4.95;;;25.00;64.80;;;;;;4859484;29;20029;-87
2022/08/15 07:10:35;;;;;;;7.43;4.72;;;25.00;64.00;;;;;;4843387;29;20136;-86
2022/08/15 07:13:04;;;;;;;8.93;4.95;;;25.00;63.90;;;;;;4850817;29;20030;-84
2022/08/15 07:15:42;;;;;;;8.82;4.22;;;25.00;64.90;;;;;;4862877;29;20507;-88
2022/08/15 07:18:16;;;;;;;8.18;4.70;;;25.00;63.30;;;;;;4864462;29;20037;-84
2022/08/15 07:20:43;;;;;;;7.60;4.78;;;25.10;63.60;;;;;;4880881;29;20040;-88
2022/08/15 07:23:21;;;;;;;6.97;4.50;;;25.00;64.20;;;;;;4861311;29;20125;-87
2022/08/15 07:25:50;;;;;;;6.63;4.55;;;25.00;63.40;;;;;;4874681;29;20154;-87
2022/08/15 07:28:20;;;;;;;8.38;4.82;;;25.20;65.10;;;;;;4873947;29;20034;-87
2022/08/15 07:31:00;;;;;;;7.78;4.88;;;25.30;64.20;;;;;;4856454;29;20116;-87
2022/08/15 07:33:37;;;;;;;9.43;4.93;;;25.40;64.40;;;;;;4876079;29;20045;-87
2022/08/15 07:36:26;;;;;;;9.30;5.15;;;25.60;62.40;;;;;;4860911;29;20037;-86
2022/08/15 07:38:54;;;;;;;6.93;4.60;;;25.60;61.50;;;;;;4879078;29;20044;-85
2022/08/15 07:41:31;;;;;;;7.82;4.70;;;25.70;62.50;;;;;;4865175;29;20028;-87
2022/08/15 07:43:59;;;;;;;7.15;5.28;;;25.90;62.10;;;;;;4875535;29;20055;-86
2022/08/15 07:46:40;;;;;;;11.07;4.82;;;26.00;61.30;;;;;;4853831;29;20159;-87
2022/08/15 07:49:19;;;;;;;9.65;5.43;;;26.20;61.00;;;;;;4855322;29;20558;-87
2022/08/15 07:51:57;;;;;;;10.10;5.30;;;26.20;59.60;;;;;;4855858;29;20037;-84
2022/08/15 07:54:28;;;;;;;7.63;4.47;;;26.30;59.70;;;;;;4869428;29;20346;-87
2022/08/15 07:57:01;;;;;;;7.82;4.80;;;26.60;60.30;;;;;;4854467;29;20030;-85
2022/08/15 07:59:28;;;;;;;7.80;5.15;;;26.70;58.60;;;;;;4858652;29;20032;-85
2022/08/15 08:02:25;;;;;;;8.48;4.93;;;26.90;59.50;;;;;;4858487;29;20033;-87
2022/08/15 08:04:51;;;;;;;7.63;4.57;;;27.00;59.10;;;;;;4857119;29;20053;-85
2022/08/15 08:07:38;;;;;;;6.70;4.78;;;27.20;59.20;;;;;;4872825;29;20022;-87
2022/08/15 08:10:29;;;;;;;8.18;4.95;;;27.40;57.80;;;;;;4859849;29;20037;-88
2022/08/15 08:13:15;;;;;;;;;;;27.50;57.60;;;;;;4857795;29;20518;-85
2022/08/15 08:15:55;;;;;;;6.35;4.47;;;27.50;57.80;;;;;;4856871;29;19912;-87
2022/08/15 08:18:41;;;;;;;10.02;4.93;;;27.90;57.10;;;;;;4859097;29;20029;-88
2022/08/15 08:21:13;;;;;;;6.47;4.47;;;28.00;57.00;;;;;;4852488;29;20057;-87
2022/08/15 08:23:42;;;;;;;14.23;5.03;;;28.00;56.40;;;;;;4878183;29;20025;-88
2022/08/15 08:26:35;;;;;;;7.55;4.90;;;28.10;54.60;;;;;;4859951;29;20022;-88
2022/08/15 08:29:16;;;;;;;8.52;4.82;;;28.20;54.40;;;;;;4855290;29;20029;-85
2022/08/15 08:32:13;;;;;;;8.48;5.07;;;28.50;52.90;;;;;;4845526;29;20044;-87
2022/08/15 08:34:46;;;;;;;8.18;4.63;;;28.50;53.90;;;;;;4877829;29;20363;-87
2022/08/15 08:37:26;;;;;;;8.75;5.28;;;28.60;53.80;;;;;;4858148;29;20088;-86
2022/08/15 08:41:24;;;;;;;9.43;5.27;;;28.90;53.80;;;;;;4847298;29;20028;-84
2022/08/15 08:42:53;;;;;;;9.05;4.97;;;29.00;53.80;;;;;;4879271;29;20324;-87
2022/08/15 08:45:28;;;;;;;7.20;4.32;;;29.00;52.20;;;;;;4858890;29;20028;-87
2022/08/15 08:48:12;;;;;;;6.85;4.82;;;29.20;53.30;;;;;;4844376;29;20025;-87
2022/08/15 08:50:58;;;;;;;9.95;5.47;;;29.40;52.40;;;;;;4875122;29;20037;-86
2022/08/15 08:53:53;;;;;;;8.70;4.65;;;29.30;50.60;;;;;;4842749;29;20045;-86
2022/08/15 08:56:28;;;;;;;6.25;4.70;;;29.50;51.70;;;;;;4872757;29;20028;-88
2022/08/15 08:59:05;;;;;;;6.90;4.85;;;29.60;52.70;;;;;;4880165;29;20032;-84
2022/08/15 09:01:34;;;;;;;7.95;4.82;;;29.70;52.70;;;;;;4859847;29;20120;-88
2022/08/15 09:04:05;;;;;;;8.23;4.82;;;29.70;51.10;;;;;;4869940;29;20025;-88
2022/08/15 09:06:38;;;;;;;9.55;5.47;;;30.00;51.20;;;;;;4863729;29;20068;-86
2022/08/15 09:09:04;;;;;;;8.88;5.10;;;29.70;49.10;;;;;;4859253;29;20063;-85
2022/08/15 09:11:41;;;;;;;6.30;5.10;;;29.90;50.10;;;;;;4853016;29;20032;-87
2022/08/15 09:14:17;;;;;;;9.90;5.25;;;30.00;50.30;;;;;;4852091;29;20025;-87
2022/08/15 09:16:44;;;;;;;6.50;4.70;;;30.30;50.10;;;;;;4857758;29;20426;-87
2022/08/15 09:19:15;;;;;;;8.55;5.00;;;30.30;47.90;;;;;;4850754;29;20025;-88
2022/08/15 09:21:43;;;;;;;7.70;5.00;;;30.40;49.90;;;;;;4868886;29;20135;-87
2022/08/15 09:24:10;;;;;;;8.27;5.63;;;30.80;50.10;;;;;;4847845;29;20537;-87
2022/08/15 09:26:56;;;;;;;7.93;4.95;;;30.40;47.70;;;;;;4863339;29;20033;-88
2022/08/15 09:29:32;;;;;;;6.80;4.63;;;30.70;47.40;;;;;;4849397;29;20124;-86
2022/08/15 09:32:24;;;;;;;7.32;5.13;;;30.60;48.10;;;;;;4879207;29;20036;-86
2022/08/15 09:35:11;;;;;;;8.18;5.40;;;30.90;47.50;;;;;;4881513;29;20028;-87
2022/08/15 09:38:13;;;;;;;7.25;4.85;;;30.50;47.00;;;;;;4878213;29;20028;-87
2022/08/15 09:41:00;;;;;;;7.95;5.35;;;31.00;46.70;;;;;;4852612;29;20029;-87
2022/08/15 09:43:31;;;;;;;5.97;4.50;;;31.30;45.80;;;;;;4862032;29;20060;-87
2022/08/15 09:46:12;;;;;;;10.43;5.35;;;31.60;46.20;;;;;;4861511;29;20373;-86
2022/08/15 09:48:56;;;;;;;7.10;4.68;;;31.90;45.30;;;;;;4872395;29;20036;-87
2022/08/15 09:51:55;;;;;;;7.53;5.18;;;31.90;44.70;;;;;;4872845;29;20123;-87
2022/08/15 09:54:24;;;;;;;9.48;5.00;;;31.40;42.80;;;;;;4861626;29;20485;-86
2022/08/15 09:57:18;;;;;;;12.20;5.63;;;31.60;43.90;;;;;;4861356;29;20035;-89
2022/08/15 09:59:48;;;;;;;7.15;4.70;;;31.70;43.20;;;;;;4874447;29;20737;-87
2022/08/15 10:02:17;;;;;;;6.85;4.78;;;32.00;42.30;;;;;;4853181;29;20393;-87
2022/08/15 10:04:48;;;;;;;7.63;4.80;;;31.90;43.10;;;;;;4870301;29;20065;-88
2022/08/15 10:07:14;;;;;;;7.45;4.47;;;32.10;42.20;;;;;;4880227;29;20745;-87
2022/08/15 10:10:00;;;;;;;8.43;4.65;;;32.00;42.70;;;;;;4877480;29;20060;-88
2022/08/15 10:12:25;;;;;;;7.88;4.47;;;32.10;41.00;;;;;;4876644;29;20040;-87
2022/08/15 10:15:02;;;;;;;6.20;4.53;;;32.30;42.20;;;;;;4852331;29;20029;-88
2022/08/15 10:17:37;;;;;;;7.10;4.40;;;32.90;42.50;;;;;;4852292;29;20104;-87
2022/08/15 10:20:15;;;;;;;9.30;4.60;;;33.10;40.70;;;;;;4877357;29;20061;-86
2022/08/15 10:23:09;;;;;;;6.50;4.38;;;32.80;39.00;;;;;;4857857;29;20530;-87
2022/08/15 10:25:37;;;;;;;5.80;4.13;;;32.90;40.30;;;;;;4862717;29;20537;-87
2022/08/15 10:28:12;;;;;;;8.52;4.30;;;32.80;39.80;;;;;;4870283;29;20425;-87
2022/08/15 10:30:52;;;;;;;8.80;4.30;;;32.80;38.70;;;;;;4852865;29;20034;-86
2022/08/15 10:33:26;;;;;;;6.90;4.07;;;32.70;38.50;;;;;;4870732;29;20030;-84
2022/08/15 10:36:02;;;;;;;5.68;3.67;;;32.70;40.80;;;;;;4860722;29;20029;-85
2022/08/15 10:38:29;;;;;;;6.57;3.90;;;32.50;39.30;;;;;;4870564;29;20030;-86
2022/08/15 10:41:35;;;;;;;7.30;3.70;;;32.30;39.30;;;;;;4859920;29;20489;-84
2022/08/15 10:44:32;;;;;;;4.82;3.67;;;31.60;41.80;;;;;;4857290;29;20064;-86
2022/08/15 10:47:25;;;;;;;5.43;3.60;;;31.50;41.80;;;;;;4868828;29;20022;-85
2022/08/15 10:50:23;;;;;;;7.57;3.78;;;32.10;37.90;;;;;;4851767;29;20455;-86
2022/08/15 10:53:09;;;;;;;5.70;3.53;;;33.00;38.80;;;;;;4854341;29;20029;-86
2022/08/15 10:55:38;;;;;;;8.13;4.07;;;33.30;39.60;;;;;;4856368;29;20061;-87
2022/08/15 10:58:26;;;;;;;6.10;3.70;;;33.80;37.50;;;;;;4847217;29;20033;-86
2022/08/15 11:01:06;;;;;;;8.93;3.70;;;33.90;35.50;;;;;;4846627;29;20067;-86
2022/08/15 11:03:47;;;;;;;5.15;3.40;;;33.80;37.20;;;;;;4846961;29;20121;-88
2022/08/15 11:06:15;;;;;;;5.75;3.50;;;34.20;37.40;;;;;;4854314;29;20033;-87
2022/08/15 11:08:53;;;;;;;7.22;3.35;;;34.40;35.30;;;;;;4849907;29;20057;-87
2022/08/15 11:11:21;;;;;;;6.38;3.75;;;34.70;35.70;;;;;;4856588;29;20105;-87
2022/08/15 11:13:57;;;;;;;5.30;3.35;;;35.10;34.70;;;;;;4853111;29;20427;-87
2022/08/15 11:16:32;;;;;;;8.25;3.40;;;34.80;34.90;;;;;;4856135;29;20059;-86
2022/08/15 11:19:00;;;;;;;5.18;3.13;;;34.90;35.00;;;;;;4867879;29;20025;-86
2022/08/15 11:21:35;;;;;;;4.50;2.90;;;35.50;34.10;;;;;;4866009;29;20021;-87
2022/08/15 11:24:06;;;;;;;4.82;3.10;;;35.60;34.90;;;;;;4849795;29;20414;-86
2022/08/15 11:26:37;;;;;;;5.07;3.03;;;35.20;33.30;;;;;;4860060;29;20485;-87
2022/08/15 11:29:19;;;;;;;7.07;2.97;;;35.00;32.40;;;;;;4847819;29;20033;-86
2022/08/15 11:31:55;;;;;;;5.40;2.70;;;35.20;34.10;;;;;;4854948;29;20037;-85
2022/08/15 11:34:31;;;;;;;6.05;3.55;;;35.40;34.60;;;;;;4849404;29;20108;-87
2022/08/15 11:37:14;;;;;;;5.05;2.97;;;35.90;34.60;;;;;;4862514;29;20383;-86
2022/08/15 11:39:43;;;;;;;6.45;3.22;;;36.10;33.10;;;;;;4853777;29;20029;-87
2022/08/15 11:42:17;;;;;;;5.30;3.13;;;36.20;31.90;;;;;;4860246;29;20036;-87
2022/08/15 11:45:00;;;;;;;5.93;2.97;;;36.40;32.20;;;;;;4869096;29;20037;-86
2022/08/15 11:47:29;;;;;;;6.75;3.17;;;36.40;33.20;;;;;;4845268;29;20041;-88
2022/08/15 11:50:00;;;;;;;7.25;3.30;;;36.60;32.20;;;;;;4858415;29;20518;-86
2022/08/15 11:52:32;;;;;;;5.90;3.75;;;36.10;32.60;;;;;;4854731;29;20117;-85
2022/08/15 11:55:09;;;;;;;5.95;2.70;;;36.00;33.30;;;;;;4857535;29;20075;-87
2022/08/15 11:57:41;;;;;;;4.28;2.83;;;35.50;33.00;;;;;;4871930;29;20025;-86
2022/08/15 12:00:33;;;;;;;3.97;2.95;;;35.10;34.10;;;;;;4853725;29;20085;-87
2022/08/15 12:02:59;;;;;;;4.82;3.17;;;34.70;36.30;;;;;;4848678;29;20130;-84
2022/08/15 12:05:31;;;;;;;6.05;2.95;;;34.30;35.40;;;;;;4869966;29;20460;-86
2022/08/15 12:08:01;;;;;;;5.85;3.40;;;34.00;35.70;;;;;;4868552;29;20033;-86
2022/08/15 12:10:35;;;;;;;4.57;3.20;;;33.70;36.20;;;;;;4857806;29;20053;-86
2022/08/15 12:13:01;;;;;;;4.13;3.38;;;33.30;36.30;;;;;;4850342;29;20070;-84
2022/08/15 12:15:32;;;;;;;4.90;3.30;;;34.40;34.80;;;;;;4846462;29;20486;-87
2022/08/15 12:18:20;;;;;;;11.70;3.47;;;35.00;36.10;;;;;;4861232;29;20030;-83
2022/08/15 12:20:55;;;;;;;6.70;3.10;;;34.70;36.80;;;;;;4851341;29;20030;-86
2022/08/15 12:23:23;;;;;;;6.38;3.55;;;34.70;35.10;;;;;;4860261;29;20431;-87
2022/08/15 12:25:58;;;;;;;5.25;2.97;;;35.40;34.20;;;;;;4850855;29;20113;-86
2022/08/15 12:28:25;;;;;;;7.18;3.10;;;35.30;33.10;;;;;;4861816;29;20049;-87
2022/08/15 12:30:55;;;;;;;7.03;2.90;;;35.50;32.30;;;;;;4859507;29;20108;-86
2022/08/15 12:33:21;;;;;;;5.15;3.22;;;34.20;34.40;;;;;;4855281;29;20061;-86
2022/08/15 12:35:48;;;;;;;5.50;3.45;;;33.70;34.40;;;;;;4860771;29;20065;-86
2022/08/15 12:38:14;;;;;;;5.72;3.20;;;33.00;35.80;;;;;;4857246;29;20025;-86
2022/08/15 12:40:39;;;;;;;8.07;3.72;;;32.80;37.00;;;;;;4860517;29;20025;-86
2022/08/15 12:43:05;;;;;;;6.78;3.58;;;32.60;36.90;;;;;;4861127;29;20037;-85
2022/08/15 12:45:31;;;;;;;10.35;4.00;;;32.00;37.30;;;;;;4855024;29;20694;-87
2022/08/15 12:47:57;;;;;;;4.22;3.00;;;31.90;38.60;;;;;;4853779;29;20384;-85
2022/08/15 12:50:22;;;;;;;7.28;4.22;;;31.90;38.30;;;;;;4843248;29;20434;-85
2022/08/15 12:52:48;;;;;;;8.27;4.05;;;31.40;40.20;;;;;;4867280;29;20048;-84
2022/08/15 12:55:13;;;;;;;6.53;4.40;;;31.20;41.80;;;;;;4872274;29;20174;-84
2022/08/15 12:57:39;;;;;;;6.22;4.30;;;31.20;43.00;;;;;;4862720;29;20025;-85
2022/08/15 13:00:07;;;;;;;11.05;4.82;;;31.20;43.70;;;;;;4861617;29;20410;-84
2022/08/15 13:02:35;;;;;;;7.88;4.20;;;30.80;43.30;;;;;;4873861;29;20032;-84
2022/08/15 13:05:01;;;;;;;9.18;4.68;;;30.90;43.80;;;;;;4874206;29;20117;-84
2022/08/15 13:07:28;;;;;;;7.35;4.25;;;30.50;44.00;;;;;;4853678;29;20082;-85
2022/08/15 13:09:53;;;;;;;11.15;5.13;;;30.50;44.50;;;;;;4878604;29;20037;-84
2022/08/15 13:12:19;;;;;;;7.10;4.70;;;30.20;47.90;;;;;;4878280;29;20613;-86
2022/08/15 13:14:45;;;;;;;7.20;4.88;;;29.70;51.60;;;;;;4865456;29;20041;-87
2022/08/15 13:17:12;;;;;;;9.25;5.53;;;28.90;57.90;;;;;;4843602;29;20025;-86
2022/08/15 13:25:13;;;;;;;15.38;6.30;;;26.90;68.50;;;;;;4868983;29;20055;-86